createdAt,value
2019-05-29T00:02:18.993Z,6.75
2019-05-29T00:04:52.515Z,6.55
2019-05-29T00:07:25.983Z,7.58
2019-05-29T00:09:59.445Z,8.38
2019-05-29T00:12:33.013Z,7.58
2019-05-29T00:15:08.324Z,8.05
2019-05-29T00:17:42.207Z,7.95
2019-05-29T00:20:15.807Z,6.58
2019-05-29T00:22:49.358Z,5.55
2019-05-29T00:25:22.833Z,5.37
2019-05-29T00:27:56.314Z,7.40
2019-05-29T00:30:29.855Z,7.00
2019-05-29T00:33:03.743Z,7.92
2019-05-29T00:35:37.308Z,7.72
2019-05-29T00:38:10.698Z,7.35
2019-05-29T00:40:44.178Z,8.18
2019-05-29T00:43:17.670Z,8.90
2019-05-29T00:45:51.198Z,8.48
2019-05-29T00:48:24.678Z,8.00
2019-05-29T00:50:58.155Z,8.55
2019-05-29T00:53:32.846Z,8.65
2019-05-29T00:56:06.313Z,9.23
2019-05-29T00:58:41.555Z,8.55
2019-05-29T01:01:15.474Z,6.22
2019-05-29T01:03:49.089Z,6.12
2019-05-29T01:06:22.628Z,7.65
2019-05-29T01:08:56.137Z,8.20
2019-05-29T01:11:29.648Z,7.78
2019-05-29T01:14:03.203Z,8.68
2019-05-29T01:16:36.658Z,8.63
2019-05-29T01:19:25.105Z,7.75
2019-05-29T01:21:58.811Z,9.28
2019-05-29T01:24:32.253Z,9.15
2019-05-29T01:27:05.793Z,8.53
2019-05-29T01:29:39.280Z,9.40
2019-05-29T01:32:13.468Z,9.48
2019-05-29T01:34:47.002Z,6.50
2019-05-29T01:37:20.471Z,6.97
2019-05-29T01:39:54.010Z,6.10
2019-05-29T01:42:27.798Z,6.80
2019-05-29T01:45:07.693Z,6.83
2019-05-29T01:47:36.377Z,7.28
2019-05-29T01:50:09.941Z,7.80
2019-05-29T01:52:43.521Z,7.58
2019-05-29T01:55:17.693Z,7.80
2019-05-29T01:57:51.635Z,8.03
2019-05-29T02:00:25.172Z,8.10
2019-05-29T02:02:58.648Z,8.18
2019-05-29T02:05:32.192Z,8.60
2019-05-29T02:08:05.669Z,7.75
2019-05-29T02:10:39.131Z,5.90
2019-05-29T02:13:12.576Z,5.40
2019-05-29T02:15:46.051Z,7.85
2019-05-29T02:18:20.739Z,7.15
2019-05-29T02:20:54.233Z,7.45
2019-05-29T02:23:28.306Z,8.28
2019-05-29T02:26:02.146Z,8.45
2019-05-29T02:28:35.614Z,8.58
2019-05-29T02:31:09.345Z,8.20
2019-05-29T02:33:43.280Z,7.85
2019-05-29T02:36:17.831Z,8.43
2019-05-29T02:38:52.790Z,8.73
2019-05-29T02:41:27.924Z,7.17
2019-05-29T02:44:01.465Z,6.35
2019-05-29T02:46:34.911Z,6.62
2019-05-29T02:49:11.383Z,8.10
2019-05-29T02:51:44.911Z,7.65
2019-05-29T02:54:18.424Z,7.95
2019-05-29T02:56:52.037Z,7.42
2019-05-29T02:59:27.029Z,8.30
2019-05-29T03:02:00.734Z,8.63
2019-05-29T03:04:34.209Z,9.33
2019-05-29T03:07:07.821Z,9.45
2019-05-29T03:09:41.584Z,10.18
2019-05-29T03:12:15.167Z,7.28
2019-05-29T03:14:48.744Z,6.62
2019-05-29T03:17:23.644Z,6.10
2019-05-29T03:19:57.597Z,7.83
2019-05-29T03:22:33.148Z,7.62
2019-05-29T03:25:08.701Z,8.00
2019-05-29T03:27:42.199Z,8.58
2019-05-29T03:30:16.553Z,8.13
2019-05-29T03:32:50.298Z,8.10
2019-05-29T03:35:23.845Z,8.23
2019-05-29T03:37:58.958Z,8.55
2019-05-29T03:40:34.581Z,8.80
2019-05-29T03:43:07.746Z,8.63
2019-05-29T03:45:41.247Z,9.33
2019-05-29T03:48:14.736Z,7.35
2019-05-29T03:50:48.339Z,7.65
2019-05-29T03:53:21.995Z,7.95
2019-05-29T03:55:55.479Z,6.53
2019-05-29T03:58:30.834Z,6.22
2019-05-29T04:01:04.160Z,6.83
2019-05-29T04:03:38.305Z,7.50
2019-05-29T04:06:12.198Z,7.28
2019-05-29T04:08:45.827Z,7.28
2019-05-29T04:11:19.357Z,7.25
2019-05-29T04:13:53.893Z,8.08
2019-05-29T04:16:29.578Z,7.45
2019-05-29T04:19:05.915Z,7.35
2019-05-29T04:21:40.507Z,7.25
2019-05-29T04:24:17.177Z,6.75
2019-05-29T04:26:52.395Z,7.42
2019-05-29T04:29:28.040Z,7.15
2019-05-29T04:32:01.816Z,7.08
2019-05-29T04:34:36.307Z,5.85
2019-05-29T04:37:11.023Z,6.20
2019-05-29T04:39:44.468Z,6.12
2019-05-29T04:42:17.967Z,6.60
2019-05-29T04:44:51.554Z,6.28
2019-05-29T04:47:25.024Z,5.47
2019-05-29T04:49:58.525Z,5.78
2019-05-29T04:52:33.561Z,5.45
2019-05-29T04:55:07.404Z,5.30
2019-05-29T04:57:40.883Z,4.60
2019-05-29T05:00:14.654Z,5.80
2019-05-29T05:02:48.121Z,5.30
2019-05-29T05:05:23.432Z,5.67
2019-05-29T05:07:56.883Z,5.30
2019-05-29T05:10:41.728Z,5.28
2019-05-29T05:13:16.510Z,5.55
2019-05-29T05:15:52.976Z,25.65
2019-05-29T05:18:26.931Z,17.23
2019-05-29T05:21:00.411Z,5.17
2019-05-29T05:23:34.069Z,5.53
2019-05-29T05:26:07.556Z,3.95
2019-05-29T05:28:44.082Z,3.90
2019-05-29T05:31:16.237Z,4.17
2019-05-29T05:33:49.655Z,3.67
2019-05-29T05:36:23.192Z,4.47
2019-05-29T05:38:56.600Z,4.78
2019-05-29T05:41:30.760Z,4.33
2019-05-29T05:44:04.809Z,4.53
2019-05-29T05:46:39.215Z,3.85
2019-05-29T05:49:12.774Z,4.12
2019-05-29T05:51:46.276Z,3.75
2019-05-29T05:54:19.685Z,4.12
2019-05-29T05:56:53.760Z,4.72
2019-05-29T05:59:28.426Z,4.90
2019-05-29T06:02:02.515Z,4.55
2019-05-29T06:04:36.035Z,3.95
2019-05-29T06:07:09.658Z,4.03
2019-05-29T06:09:43.175Z,4.35
2019-05-29T06:12:16.585Z,3.80
2019-05-29T06:14:50.036Z,37.30
2019-05-29T06:17:23.654Z,9.80
2019-05-29T06:19:57.145Z,4.90
2019-05-29T06:22:30.606Z,3.33
2019-05-29T06:25:04.084Z,2.92
2019-05-29T06:27:37.699Z,3.85
2019-05-29T06:30:11.454Z,4.03
2019-05-29T06:32:44.956Z,4.08
2019-05-29T06:35:18.494Z,3.92
2019-05-29T06:37:53.088Z,3.70
2019-05-29T06:40:42.257Z,4.37
2019-05-29T06:43:24.574Z,4.75
2019-05-29T06:45:59.032Z,4.50
2019-05-29T06:48:52.634Z,4.30
2019-05-29T06:51:08.647Z,4.08
2019-05-29T06:53:42.036Z,4.12
2019-05-29T06:56:16.458Z,4.03
2019-05-29T06:58:50.823Z,4.60
2019-05-29T07:01:24.990Z,4.85
2019-05-29T07:04:11.056Z,4.30
2019-05-29T07:06:33.778Z,4.50
2019-05-29T07:09:07.992Z,4.80
2019-05-29T07:11:41.491Z,4.40
2019-05-29T07:14:14.977Z,4.10
2019-05-29T07:16:55.632Z,4.35
2019-05-29T07:19:28.173Z,11.93
2019-05-29T07:21:59.016Z,4.55
2019-05-29T07:24:32.583Z,3.80
2019-05-29T07:27:06.038Z,4.08
2019-05-29T07:29:39.840Z,3.98
2019-05-29T07:32:14.611Z,2.67
2019-05-29T07:35:02.048Z,3.47
2019-05-29T07:37:23.224Z,3.20
2019-05-29T07:39:56.734Z,11.03
2019-05-29T07:42:30.258Z,4.00
2019-05-29T07:45:04.026Z,3.08
2019-05-29T07:47:38.304Z,2.98
2019-05-29T07:50:12.874Z,3.10
2019-05-29T07:52:47.320Z,3.83
2019-05-29T07:55:23.633Z,2.72
2019-05-29T07:57:56.689Z,3.02
2019-05-29T08:00:35.724Z,3.90
2019-05-29T08:03:05.359Z,3.27
2019-05-29T08:05:39.210Z,3.02
2019-05-29T08:08:13.047Z,3.60
2019-05-29T08:10:47.665Z,3.47
2019-05-29T08:13:22.287Z,3.02
2019-05-29T08:16:02.705Z,2.62
2019-05-29T08:18:32.227Z,2.77
2019-05-29T08:21:05.755Z,6.53
2019-05-29T08:23:40.260Z,3.90
2019-05-29T08:26:13.967Z,3.42
2019-05-29T08:28:48.794Z,3.52
2019-05-29T08:31:22.600Z,3.20
2019-05-29T08:33:56.056Z,3.40
2019-05-29T08:36:29.519Z,3.05
2019-05-29T08:39:03.035Z,3.35
2019-05-29T08:41:36.554Z,3.47
2019-05-29T08:44:09.967Z,3.17
2019-05-29T08:47:01.410Z,3.50
2019-05-29T08:49:18.560Z,2.98
2019-05-29T08:51:52.338Z,3.35
2019-05-29T08:54:26.123Z,3.08
2019-05-29T08:56:59.703Z,2.83
2019-05-29T08:59:33.099Z,3.05
2019-05-29T09:02:06.697Z,2.58
2019-05-29T09:04:40.104Z,2.90
2019-05-29T09:07:14.965Z,2.72
2019-05-29T09:09:49.115Z,3.62
2019-05-29T09:12:22.704Z,3.80
2019-05-29T09:14:56.199Z,3.30
2019-05-29T09:17:29.800Z,3.67
2019-05-29T09:20:03.380Z,3.15
2019-05-29T09:22:37.934Z,3.05
2019-05-29T09:25:13.617Z,3.60
2019-05-29T09:27:47.926Z,3.40
2019-05-29T09:30:21.789Z,3.17
2019-05-29T09:32:55.593Z,3.98
2019-05-29T09:35:29.069Z,3.22
2019-05-29T09:38:02.555Z,2.95
2019-05-29T09:40:36.075Z,3.75
2019-05-29T09:43:09.533Z,3.37
2019-05-29T09:45:42.999Z,3.00
2019-05-29T09:48:20.217Z,3.12
2019-05-29T09:50:51.634Z,3.27
2019-05-29T09:53:25.180Z,3.67
2019-05-29T09:55:59.079Z,3.52
2019-05-29T09:58:33.099Z,2.95
2019-05-29T10:01:21.384Z,3.33
2019-05-29T10:03:41.915Z,3.12
2019-05-29T10:06:15.520Z,3.47
2019-05-29T10:08:49.089Z,3.30
2019-05-29T10:11:22.539Z,3.02
2019-05-29T10:13:56.974Z,3.27
2019-05-29T10:16:31.164Z,3.60
2019-05-29T10:19:04.991Z,4.25
2019-05-29T10:21:40.987Z,3.55
2019-05-29T10:24:13.664Z,3.42
2019-05-29T10:26:47.148Z,3.10
2019-05-29T10:29:20.551Z,3.80
2019-05-29T10:31:54.071Z,3.72
2019-05-29T10:34:28.744Z,3.92
2019-05-29T10:37:02.183Z,2.90
2019-05-29T10:39:35.708Z,3.83
2019-05-29T10:42:09.153Z,3.20
2019-05-29T10:44:42.978Z,4.00
2019-05-29T10:47:16.768Z,3.37
2019-05-29T10:49:50.136Z,3.90
2019-05-29T10:52:23.608Z,4.28
2019-05-29T10:54:57.047Z,3.87
2019-05-29T10:57:30.545Z,4.03
2019-05-29T11:00:05.822Z,4.33
2019-05-29T11:02:39.313Z,4.20
2019-05-29T11:05:12.955Z,4.10
2019-05-29T11:07:47.652Z,4.28
2019-05-29T11:10:21.326Z,4.47
2019-05-29T11:12:54.782Z,3.85
2019-05-29T11:15:28.193Z,3.95
2019-05-29T11:18:01.740Z,4.35
2019-05-29T11:20:35.305Z,4.35
2019-05-29T11:23:08.908Z,4.28
2019-05-29T11:25:43.254Z,3.55
2019-05-29T11:28:16.691Z,3.92
2019-05-29T11:30:51.979Z,3.98
2019-05-29T11:33:25.423Z,4.97
2019-05-29T11:36:09.898Z,4.80
2019-05-29T11:38:33.924Z,3.62
2019-05-29T11:41:25.177Z,3.37
2019-05-29T11:43:42.689Z,4.10
2019-05-29T11:46:16.235Z,4.12
2019-05-29T11:48:51.029Z,4.03
2019-05-29T11:51:24.907Z,4.12
2019-05-29T11:53:59.476Z,3.55
2019-05-29T11:56:33.656Z,3.15
2019-05-29T11:59:07.115Z,3.55
2019-05-29T12:01:50.359Z,3.67
2019-05-29T12:04:25.737Z,3.27
2019-05-29T12:06:51.255Z,3.00
2019-05-29T12:09:32.850Z,3.55
2019-05-29T12:12:00.408Z,3.50
2019-05-29T12:14:34.249Z,2.60
2019-05-29T12:17:07.697Z,3.47
2019-05-29T12:19:41.174Z,2.75
2019-05-29T12:22:14.598Z,2.85
2019-05-29T12:24:48.121Z,3.50
2019-05-29T12:27:21.647Z,3.70
2019-05-29T12:29:55.101Z,3.47
2019-05-29T12:32:28.586Z,3.20
2019-05-29T12:35:03.052Z,3.20
2019-05-29T12:37:36.788Z,4.95
2019-05-29T12:40:11.748Z,4.05
2019-05-29T12:42:45.367Z,3.72
2019-05-29T12:45:18.999Z,3.67
2019-05-29T12:47:54.292Z,3.90
2019-05-29T12:50:28.318Z,4.90
2019-05-29T12:53:01.909Z,4.25
2019-05-29T12:55:35.480Z,3.47
2019-05-29T12:58:09.147Z,3.87
2019-05-29T13:00:42.643Z,4.10
2019-05-29T13:03:16.306Z,4.62
2019-05-29T13:05:49.894Z,3.40
2019-05-29T13:08:23.467Z,5.08
2019-05-29T13:10:58.046Z,3.52
2019-05-29T13:13:31.949Z,3.47
2019-05-29T13:16:05.555Z,3.83
2019-05-29T13:18:39.069Z,4.22
2019-05-29T13:21:12.429Z,3.52
2019-05-29T13:23:45.973Z,3.92
2019-05-29T13:26:19.435Z,4.05
2019-05-29T13:28:53.096Z,3.83
2019-05-29T13:31:26.569Z,3.80
2019-05-29T13:34:00.090Z,3.77
2019-05-29T13:36:33.582Z,4.12
2019-05-29T13:39:09.808Z,3.80
2019-05-29T13:41:43.254Z,3.85
2019-05-29T13:44:16.766Z,3.90
2019-05-29T13:46:50.217Z,3.62
2019-05-29T13:49:23.541Z,3.40
2019-05-29T13:51:57.184Z,3.50
2019-05-29T13:54:30.836Z,3.40
2019-05-29T13:57:05.101Z,3.50
2019-05-29T13:59:39.530Z,3.92
2019-05-29T14:02:13.363Z,3.70
2019-05-29T14:04:46.874Z,4.25
2019-05-29T14:07:20.330Z,4.10
2019-05-29T14:09:53.883Z,3.75
2019-05-29T14:12:27.383Z,3.60
2019-05-29T14:15:02.087Z,3.22
2019-05-29T14:17:36.344Z,3.55
2019-05-29T14:20:13.050Z,3.50
2019-05-29T14:22:46.945Z,4.08
2019-05-29T14:25:20.634Z,4.10
2019-05-29T14:27:54.166Z,4.70
2019-05-29T14:30:27.870Z,4.20
2019-05-29T14:33:02.356Z,3.22
2019-05-29T14:35:36.169Z,4.80
2019-05-29T14:38:12.626Z,4.35
2019-05-29T14:40:44.865Z,3.95
2019-05-29T14:43:18.321Z,3.17
2019-05-29T14:45:52.045Z,3.27
2019-05-29T14:48:25.510Z,3.47
2019-05-29T14:50:58.945Z,3.37
2019-05-29T14:53:32.417Z,3.40
2019-05-29T14:56:06.596Z,3.00
2019-05-29T14:58:40.427Z,3.77
2019-05-29T15:01:13.972Z,3.35
2019-05-29T15:03:47.483Z,3.20
2019-05-29T15:06:20.925Z,3.75
2019-05-29T15:08:54.384Z,2.87
2019-05-29T15:11:27.744Z,3.60
2019-05-29T15:14:01.229Z,3.90
2019-05-29T15:16:34.699Z,3.67
2019-05-29T15:19:09.176Z,3.50
2019-05-29T15:21:42.617Z,3.47
2019-05-29T15:24:16.076Z,4.53
2019-05-29T15:26:49.629Z,4.80
2019-05-29T15:29:23.099Z,4.17
2019-05-29T15:31:56.638Z,3.45
2019-05-29T15:34:30.133Z,3.95
2019-05-29T15:37:03.889Z,4.20
2019-05-29T15:39:37.415Z,5.12
2019-05-29T15:42:12.873Z,5.55
2019-05-29T15:44:46.653Z,4.28
2019-05-29T15:47:20.186Z,4.25
2019-05-29T15:49:53.661Z,3.85
2019-05-29T15:52:27.219Z,3.62
2019-05-29T15:55:20.072Z,3.58
2019-05-29T15:57:36.098Z,3.60
2019-05-29T16:00:15.593Z,3.85
2019-05-29T16:02:49.975Z,3.67
2019-05-29T16:05:23.932Z,4.05
2019-05-29T16:07:57.411Z,3.60
2019-05-29T16:10:31.331Z,3.77
2019-05-29T16:13:04.866Z,4.50
2019-05-29T16:15:38.345Z,3.62
2019-05-29T16:18:22.976Z,4.03
2019-05-29T16:20:47.008Z,3.85
2019-05-29T16:23:32.283Z,3.92
2019-05-29T16:25:55.571Z,3.92
2019-05-29T16:28:28.997Z,4.40
2019-05-29T16:31:02.489Z,4.15
2019-05-29T16:33:36.076Z,5.10
2019-05-29T16:36:09.519Z,4.92
2019-05-29T16:38:42.989Z,4.55
2019-05-29T16:41:17.788Z,5.25
2019-05-29T16:43:51.334Z,4.65
2019-05-29T16:46:24.831Z,4.78
2019-05-29T16:48:58.532Z,5.83
2019-05-29T16:51:31.930Z,5.05
2019-05-29T16:54:05.338Z,4.85
2019-05-29T16:56:38.829Z,5.15
2019-05-29T16:59:12.822Z,4.78
2019-05-29T17:01:46.629Z,5.40
2019-05-29T17:04:20.310Z,4.85
2019-05-29T17:06:53.870Z,4.83
2019-05-29T17:09:27.270Z,4.60
2019-05-29T17:12:00.997Z,4.75
2019-05-29T17:14:34.456Z,5.30
2019-05-29T17:17:07.927Z,4.40
2019-05-29T17:19:41.373Z,4.10
2019-05-29T17:22:14.968Z,4.65
2019-05-29T17:24:48.601Z,5.03
2019-05-29T17:27:22.966Z,5.03
2019-05-29T17:29:56.650Z,5.37
2019-05-29T17:32:30.145Z,4.75
2019-05-29T17:35:04.746Z,5.80
2019-05-29T17:37:38.451Z,5.33
2019-05-29T17:40:12.158Z,5.53
2019-05-29T17:42:45.760Z,5.00
2019-05-29T17:45:23.950Z,4.75
2019-05-29T17:47:55.520Z,5.75
2019-05-29T17:50:28.989Z,4.80
2019-05-29T17:53:02.502Z,6.22
2019-05-29T17:55:35.950Z,4.75
2019-05-29T17:58:09.449Z,4.95
2019-05-29T18:00:42.937Z,5.12
2019-05-29T18:03:16.505Z,4.70
2019-05-29T18:05:49.951Z,5.00
2019-05-29T18:08:23.307Z,5.53
2019-05-29T18:10:56.809Z,5.55
2019-05-29T18:13:31.115Z,4.78
2019-05-29T18:16:04.836Z,5.95
2019-05-29T18:18:38.287Z,7.78
2019-05-29T18:21:11.788Z,7.80
2019-05-29T18:23:46.479Z,8.70
2019-05-29T18:26:20.061Z,11.75
2019-05-29T18:28:53.637Z,20.35
2019-05-29T18:31:27.152Z,21.20
2019-05-29T18:34:00.760Z,14.33
2019-05-29T18:36:34.545Z,12.00
2019-05-29T18:39:09.140Z,7.40
2019-05-29T18:41:42.729Z,6.35
2019-05-29T18:44:16.372Z,6.78
2019-05-29T18:46:49.883Z,7.65
2019-05-29T18:49:24.296Z,9.80
2019-05-29T18:52:00.397Z,9.00
2019-05-29T18:54:34.411Z,10.78
2019-05-29T18:57:15.276Z,9.18
2019-05-29T18:59:43.045Z,8.05
2019-05-29T19:02:16.433Z,10.82
2019-05-29T19:04:49.958Z,10.90
2019-05-29T19:07:23.709Z,8.38
2019-05-29T19:09:58.673Z,8.73
2019-05-29T19:12:32.348Z,7.37
2019-05-29T19:15:10.487Z,7.08
2019-05-29T19:17:43.945Z,6.67
2019-05-29T19:20:18.242Z,6.20
2019-05-29T19:22:51.848Z,5.65
2019-05-29T19:25:26.721Z,5.05
2019-05-29T19:28:00.356Z,5.58
2019-05-29T19:30:33.958Z,5.65
2019-05-29T19:33:07.553Z,5.78
2019-05-29T19:35:41.262Z,5.60
2019-05-29T19:38:14.788Z,5.35
2019-05-29T19:40:48.321Z,4.60
2019-05-29T19:43:21.820Z,5.05
2019-05-29T19:45:55.281Z,5.20
2019-05-29T19:48:28.912Z,4.80
2019-05-29T19:51:02.438Z,5.60
2019-05-29T19:53:35.958Z,5.60
2019-05-29T19:56:09.394Z,5.65
2019-05-29T19:58:42.889Z,5.92
2019-05-29T20:01:30.133Z,6.40
2019-05-29T20:03:51.620Z,5.80
2019-05-29T20:06:25.076Z,5.40
2019-05-29T20:08:58.552Z,5.72
2019-05-29T20:11:32.043Z,5.45
2019-05-29T20:14:07.505Z,6.17
2019-05-29T20:16:40.550Z,5.15
2019-05-29T20:19:14.053Z,6.35
2019-05-29T20:21:47.582Z,6.40
2019-05-29T20:24:21.090Z,6.95
2019-05-29T20:26:54.523Z,5.78
2019-05-29T20:29:28.148Z,5.95
2019-05-29T20:32:01.545Z,5.55
2019-05-29T20:34:35.094Z,5.67
2019-05-29T20:37:08.575Z,5.58
2019-05-29T20:39:42.523Z,5.62
2019-05-29T20:42:16.356Z,5.42
2019-05-29T20:44:49.832Z,5.08
2019-05-29T20:47:23.236Z,5.22
2019-05-29T20:49:56.805Z,5.62
2019-05-29T20:52:31.103Z,5.20
2019-05-29T20:55:05.590Z,5.50
2019-05-29T20:57:40.053Z,6.50
2019-05-29T21:00:17.631Z,5.40
2019-05-29T21:02:51.261Z,5.28
2019-05-29T21:05:24.721Z,5.70
2019-05-29T21:07:58.173Z,5.50
2019-05-29T21:10:33.006Z,5.33
2019-05-29T21:13:06.688Z,5.20
2019-05-29T21:15:40.184Z,5.33
2019-05-29T21:18:13.715Z,4.90
2019-05-29T21:20:47.176Z,5.28
2019-05-29T21:23:20.665Z,5.03
2019-05-29T21:25:54.097Z,4.70
2019-05-29T21:28:39.615Z,4.95
2019-05-29T21:31:02.755Z,4.90
2019-05-29T21:33:36.259Z,4.97
2019-05-29T21:36:09.727Z,4.28
2019-05-29T21:38:44.295Z,4.15
2019-05-29T21:41:18.649Z,4.95
2019-05-29T21:43:52.083Z,4.95
2019-05-29T21:46:25.549Z,4.67
2019-05-29T21:48:59.018Z,4.50
2019-05-29T21:51:32.419Z,4.60
2019-05-29T21:54:06.321Z,4.10
2019-05-29T21:56:39.785Z,4.92
2019-05-29T21:59:13.263Z,4.62
2019-05-29T22:01:46.750Z,4.50
2019-05-29T22:04:20.235Z,4.75
2019-05-29T22:06:53.822Z,4.33
2019-05-29T22:09:27.338Z,4.35
2019-05-29T22:12:00.803Z,4.15
2019-05-29T22:14:34.367Z,4.47
2019-05-29T22:17:07.825Z,4.95
2019-05-29T22:19:41.292Z,4.90
2019-05-29T22:22:14.768Z,4.83
2019-05-29T22:24:48.357Z,4.87
2019-05-29T22:27:21.817Z,4.40
2019-05-29T22:29:55.344Z,5.42
2019-05-29T22:32:28.940Z,4.90
2019-05-29T22:35:02.369Z,4.80
2019-05-29T22:37:36.743Z,4.75
2019-05-29T22:40:11.425Z,5.78
2019-05-29T22:42:44.908Z,4.60
2019-05-29T22:45:18.555Z,4.70
2019-05-29T22:47:52.029Z,5.15
2019-05-29T22:50:25.505Z,5.12
2019-05-29T22:52:59.952Z,5.37
2019-05-29T22:55:33.925Z,5.45
2019-05-29T22:58:07.421Z,5.45
2019-05-29T23:00:40.800Z,4.28
2019-05-29T23:03:14.275Z,4.10
2019-05-29T23:05:47.724Z,4.25
2019-05-29T23:08:21.199Z,4.62
2019-05-29T23:10:54.737Z,4.40
2019-05-29T23:13:28.225Z,4.30
2019-05-29T23:16:02.873Z,4.97
2019-05-29T23:18:36.423Z,4.58
2019-05-29T23:21:09.928Z,4.80
2019-05-29T23:23:43.317Z,4.65
2019-05-29T23:26:18.085Z,5.58
2019-05-29T23:28:52.740Z,4.78
2019-05-29T23:31:26.610Z,5.50
2019-05-29T23:34:01.141Z,6.15
2019-05-29T23:36:34.980Z,8.38
2019-05-29T23:39:08.460Z,6.05
2019-05-29T23:41:41.960Z,5.78
2019-05-29T23:44:15.443Z,5.70
2019-05-29T23:46:49.010Z,6.17
2019-05-29T23:49:22.457Z,6.47
2019-05-29T23:51:55.903Z,5.20
2019-05-29T23:54:29.301Z,4.10
2019-05-29T23:57:04.363Z,3.62
2019-05-29T23:59:37.729Z,4.55
